sensor_id;sensor_type;location;lat;lon;timestamp;temperature;humidity
8475;DHT22;4274;52.012;8.448;2023-12-20T00:02:16;6.40;99.90
8475;DHT22;4274;52.012;8.448;2023-12-20T00:04:42;6.40;99.90
8475;DHT22;4274;52.012;8.448;2023-12-20T00:07:07;6.30;99.90
8475;DHT22;4274;52.012;8.448;2023-12-20T00:09:33;6.30;99.90
8475;DHT22;4274;52.012;8.448;2023-12-20T00:11:58;6.20;99.90
8475;DHT22;4274;52.012;8.448;2023-12-20T00:14:24;6.20;99.90
8475;DHT22;4274;52.012;8.448;2023-12-20T00:16:49;6.10;99.90
8475;DHT22;4274;52.012;8.448;2023-12-20T00:19:15;6.10;99.90
8475;DHT22;4274;52.012;8.448;2023-12-20T00:21:40;6.10;99.90
8475;DHT22;4274;52.012;8.448;2023-12-20T00:24:06;6.00;99.90
8475;DHT22;4274;52.012;8.448;2023-12-20T00:26:32;6.10;99.90
8475;DHT22;4274;52.012;8.448;2023-12-20T00:28:57;6.10;99.90
8475;DHT22;4274;52.012;8.448;2023-12-20T00:31:23;6.10;99.90
8475;DHT22;4274;52.012;8.448;2023-12-20T00:33:48;6.20;99.90
8475;DHT22;4274;52.012;8.448;2023-12-20T00:36:14;6.20;99.90
8475;DHT22;4274;52.012;8.448;2023-12-20T00:38:39;6.20;99.90
8475;DHT22;4274;52.012;8.448;2023-12-20T00:41:05;6.20;99.90
8475;DHT22;4274;52.012;8.448;2023-12-20T00:43:30;6.20;99.90
8475;DHT22;4274;52.012;8.448;2023-12-20T00:45:57;6.20;99.90
8475;DHT22;4274;52.012;8.448;2023-12-20T00:48:22;6.10;99.90
8475;DHT22;4274;52.012;8.448;2023-12-20T00:50:48;6.10;99.90
8475;DHT22;4274;52.012;8.448;2023-12-20T00:53:13;6.10;99.90
8475;DHT22;4274;52.012;8.448;2023-12-20T00:55:39;6.10;99.90
8475;DHT22;4274;52.012;8.448;2023-12-20T00:58:05;6.10;99.90
8475;DHT22;4274;52.012;8.448;2023-12-20T01:00:31;6.10;99.90
8475;DHT22;4274;52.012;8.448;2023-12-20T01:02:56;6.10;99.90
8475;DHT22;4274;52.012;8.448;2023-12-20T01:05:22;6.10;99.90
8475;DHT22;4274;52.012;8.448;2023-12-20T01:07:48;6.10;99.90
8475;DHT22;4274;52.012;8.448;2023-12-20T01:10:14;6.10;99.90
8475;DHT22;4274;52.012;8.448;2023-12-20T01:12:40;6.10;99.90
8475;DHT22;4274;52.012;8.448;2023-12-20T01:15:06;6.10;99.90
8475;DHT22;4274;52.012;8.448;2023-12-20T01:17:32;6.00;99.90
8475;DHT22;4274;52.012;8.448;2023-12-20T01:19:57;6.00;99.90
8475;DHT22;4274;52.012;8.448;2023-12-20T01:22:23;5.90;99.90
8475;DHT22;4274;52.012;8.448;2023-12-20T01:24:49;6.00;99.90
8475;DHT22;4274;52.012;8.448;2023-12-20T01:27:15;5.90;99.90
8475;DHT22;4274;52.012;8.448;2023-12-20T01:29:40;5.90;99.90
8475;DHT22;4274;52.012;8.448;2023-12-20T01:32:06;5.90;99.90
8475;DHT22;4274;52.012;8.448;2023-12-20T01:34:32;6.00;99.90
8475;DHT22;4274;52.012;8.448;2023-12-20T01:36:57;6.00;99.90
8475;DHT22;4274;52.012;8.448;2023-12-20T01:39:23;5.90;99.90
8475;DHT22;4274;52.012;8.448;2023-12-20T01:41:49;5.90;99.90
8475;DHT22;4274;52.012;8.448;2023-12-20T01:44:14;5.90;99.90
8475;DHT22;4274;52.012;8.448;2023-12-20T01:46:40;5.90;99.90
8475;DHT22;4274;52.012;8.448;2023-12-20T01:49:06;5.90;99.90
8475;DHT22;4274;52.012;8.448;2023-12-20T01:51:33;5.90;99.90
8475;DHT22;4274;52.012;8.448;2023-12-20T01:53:59;6.00;99.90
8475;DHT22;4274;52.012;8.448;2023-12-20T01:56:26;6.00;99.90
8475;DHT22;4274;52.012;8.448;2023-12-20T01:58:54;6.00;99.90
8475;DHT22;4274;52.012;8.448;2023-12-20T02:01:21;5.90;99.90
8475;DHT22;4274;52.012;8.448;2023-12-20T02:03:47;5.90;99.90
8475;DHT22;4274;52.012;8.448;2023-12-20T02:06:13;5.90;99.90
8475;DHT22;4274;52.012;8.448;2023-12-20T02:08:39;5.80;99.90
8475;DHT22;4274;52.012;8.448;2023-12-20T02:11:04;5.70;99.90
8475;DHT22;4274;52.012;8.448;2023-12-20T02:13:30;5.80;99.90
8475;DHT22;4274;52.012;8.448;2023-12-20T02:15:56;5.70;99.90
8475;DHT22;4274;52.012;8.448;2023-12-20T02:18:22;5.70;99.90
8475;DHT22;4274;52.012;8.448;2023-12-20T02:20:48;5.70;99.90
8475;DHT22;4274;52.012;8.448;2023-12-20T02:23:13;5.70;99.90
8475;DHT22;4274;52.012;8.448;2023-12-20T02:25:39;5.70;99.90
8475;DHT22;4274;52.012;8.448;2023-12-20T02:28:05;5.60;99.90
8475;DHT22;4274;52.012;8.448;2023-12-20T02:30:31;5.60;99.90
8475;DHT22;4274;52.012;8.448;2023-12-20T02:32:57;5.50;99.90
8475;DHT22;4274;52.012;8.448;2023-12-20T02:35:25;5.50;99.90
8475;DHT22;4274;52.012;8.448;2023-12-20T02:37:50;5.40;99.90
8475;DHT22;4274;52.012;8.448;2023-12-20T02:40:16;5.40;99.90
8475;DHT22;4274;52.012;8.448;2023-12-20T02:42:41;5.40;99.90
8475;DHT22;4274;52.012;8.448;2023-12-20T02:45:07;5.40;99.90
8475;DHT22;4274;52.012;8.448;2023-12-20T02:47:33;5.40;99.90
8475;DHT22;4274;52.012;8.448;2023-12-20T02:49:58;5.40;99.90
8475;DHT22;4274;52.012;8.448;2023-12-20T02:52:25;5.40;99.90
8475;DHT22;4274;52.012;8.448;2023-12-20T02:54:51;5.30;99.90
8475;DHT22;4274;52.012;8.448;2023-12-20T02:57:16;5.30;99.90
8475;DHT22;4274;52.012;8.448;2023-12-20T02:59:42;5.30;99.90
8475;DHT22;4274;52.012;8.448;2023-12-20T03:02:07;5.30;99.90
8475;DHT22;4274;52.012;8.448;2023-12-20T03:04:33;5.30;99.90
8475;DHT22;4274;52.012;8.448;2023-12-20T03:06:58;5.30;99.90
8475;DHT22;4274;52.012;8.448;2023-12-20T03:09:24;5.30;99.90
8475;DHT22;4274;52.012;8.448;2023-12-20T03:11:50;5.30;99.90
8475;DHT22;4274;52.012;8.448;2023-12-20T03:14:15;5.30;99.90
8475;DHT22;4274;52.012;8.448;2023-12-20T03:16:41;5.40;99.90
8475;DHT22;4274;52.012;8.448;2023-12-20T03:19:06;5.30;99.90
8475;DHT22;4274;52.012;8.448;2023-12-20T03:21:32;5.40;99.90
8475;DHT22;4274;52.012;8.448;2023-12-20T03:23:57;5.40;99.90
8475;DHT22;4274;52.012;8.448;2023-12-20T03:26:23;5.40;99.90
8475;DHT22;4274;52.012;8.448;2023-12-20T03:28:48;5.40;99.90
8475;DHT22;4274;52.012;8.448;2023-12-20T03:31:14;5.40;99.90
8475;DHT22;4274;52.012;8.448;2023-12-20T03:33:40;5.40;99.90
8475;DHT22;4274;52.012;8.448;2023-12-20T03:36:06;5.40;99.90
8475;DHT22;4274;52.012;8.448;2023-12-20T03:38:31;5.40;99.90
8475;DHT22;4274;52.012;8.448;2023-12-20T03:40:57;5.40;99.90
8475;DHT22;4274;52.012;8.448;2023-12-20T03:43:22;5.40;99.90
8475;DHT22;4274;52.012;8.448;2023-12-20T03:45:48;5.40;99.90
8475;DHT22;4274;52.012;8.448;2023-12-20T03:48:13;5.40;99.90
8475;DHT22;4274;52.012;8.448;2023-12-20T03:50:39;5.40;99.90
8475;DHT22;4274;52.012;8.448;2023-12-20T03:53:04;5.40;99.90
8475;DHT22;4274;52.012;8.448;2023-12-20T03:55:30;5.40;99.90
8475;DHT22;4274;52.012;8.448;2023-12-20T03:57:56;5.40;99.90
8475;DHT22;4274;52.012;8.448;2023-12-20T04:00:21;5.40;99.90
8475;DHT22;4274;52.012;8.448;2023-12-20T04:02:47;5.40;99.90
8475;DHT22;4274;52.012;8.448;2023-12-20T04:05:12;5.50;99.90
8475;DHT22;4274;52.012;8.448;2023-12-20T04:07:38;5.40;99.90
8475;DHT22;4274;52.012;8.448;2023-12-20T04:10:05;5.40;99.90
8475;DHT22;4274;52.012;8.448;2023-12-20T04:12:31;5.40;99.90
8475;DHT22;4274;52.012;8.448;2023-12-20T04:14:57;5.40;99.90
8475;DHT22;4274;52.012;8.448;2023-12-20T04:17:22;5.40;99.90
8475;DHT22;4274;52.012;8.448;2023-12-20T04:19:49;5.40;99.90
8475;DHT22;4274;52.012;8.448;2023-12-20T04:22:15;5.40;99.90
8475;DHT22;4274;52.012;8.448;2023-12-20T04:24:40;5.40;99.90
8475;DHT22;4274;52.012;8.448;2023-12-20T04:27:07;5.40;99.90
8475;DHT22;4274;52.012;8.448;2023-12-20T04:29:34;5.40;99.90
8475;DHT22;4274;52.012;8.448;2023-12-20T04:31:59;5.40;99.90
8475;DHT22;4274;52.012;8.448;2023-12-20T04:34:25;5.40;99.90
8475;DHT22;4274;52.012;8.448;2023-12-20T04:36:51;5.50;99.90
8475;DHT22;4274;52.012;8.448;2023-12-20T04:39:16;5.40;99.90
8475;DHT22;4274;52.012;8.448;2023-12-20T04:41:42;5.40;99.90
8475;DHT22;4274;52.012;8.448;2023-12-20T04:44:07;5.40;99.90
8475;DHT22;4274;52.012;8.448;2023-12-20T04:46:33;5.40;99.90
8475;DHT22;4274;52.012;8.448;2023-12-20T04:48:59;5.40;99.90
8475;DHT22;4274;52.012;8.448;2023-12-20T04:51:24;5.40;99.90
8475;DHT22;4274;52.012;8.448;2023-12-20T04:53:50;5.50;99.90
8475;DHT22;4274;52.012;8.448;2023-12-20T04:56:16;5.50;99.90
8475;DHT22;4274;52.012;8.448;2023-12-20T04:58:42;5.40;99.90
8475;DHT22;4274;52.012;8.448;2023-12-20T05:01:08;5.40;99.90
8475;DHT22;4274;52.012;8.448;2023-12-20T05:03:34;5.50;99.90
8475;DHT22;4274;52.012;8.448;2023-12-20T05:06:00;5.50;99.90
8475;DHT22;4274;52.012;8.448;2023-12-20T05:08:25;5.50;99.90
8475;DHT22;4274;52.012;8.448;2023-12-20T05:10:53;5.50;99.90
8475;DHT22;4274;52.012;8.448;2023-12-20T05:13:19;5.50;99.90
8475;DHT22;4274;52.012;8.448;2023-12-20T05:15:44;5.50;99.90
8475;DHT22;4274;52.012;8.448;2023-12-20T05:18:10;5.50;99.90
8475;DHT22;4274;52.012;8.448;2023-12-20T05:20:35;5.50;99.90
8475;DHT22;4274;52.012;8.448;2023-12-20T05:23:01;5.50;99.90
8475;DHT22;4274;52.012;8.448;2023-12-20T05:25:27;5.50;99.90
8475;DHT22;4274;52.012;8.448;2023-12-20T05:27:52;5.40;99.90
8475;DHT22;4274;52.012;8.448;2023-12-20T05:30:18;5.50;99.90
8475;DHT22;4274;52.012;8.448;2023-12-20T05:32:43;5.50;99.90
8475;DHT22;4274;52.012;8.448;2023-12-20T05:35:09;5.40;99.90
8475;DHT22;4274;52.012;8.448;2023-12-20T05:37:34;5.50;99.90
8475;DHT22;4274;52.012;8.448;2023-12-20T05:40:00;5.40;99.90
8475;DHT22;4274;52.012;8.448;2023-12-20T05:42:26;5.50;99.90
8475;DHT22;4274;52.012;8.448;2023-12-20T05:44:51;5.40;99.90
8475;DHT22;4274;52.012;8.448;2023-12-20T05:47:17;5.40;99.90
8475;DHT22;4274;52.012;8.448;2023-12-20T05:49:43;5.50;99.90
8475;DHT22;4274;52.012;8.448;2023-12-20T05:52:09;5.50;99.90
8475;DHT22;4274;52.012;8.448;2023-12-20T05:54:35;5.50;99.90
8475;DHT22;4274;52.012;8.448;2023-12-20T05:57:00;5.50;99.90
8475;DHT22;4274;52.012;8.448;2023-12-20T05:59:26;5.50;99.90
8475;DHT22;4274;52.012;8.448;2023-12-20T06:01:52;5.60;99.90
8475;DHT22;4274;52.012;8.448;2023-12-20T06:04:17;5.60;99.90
8475;DHT22;4274;52.012;8.448;2023-12-20T06:06:43;5.60;99.90
8475;DHT22;4274;52.012;8.448;2023-12-20T06:09:09;5.60;99.90
8475;DHT22;4274;52.012;8.448;2023-12-20T06:11:34;5.60;99.90
8475;DHT22;4274;52.012;8.448;2023-12-20T06:14:00;5.60;99.90
8475;DHT22;4274;52.012;8.448;2023-12-20T06:16:26;5.60;99.90
8475;DHT22;4274;52.012;8.448;2023-12-20T06:18:51;5.60;99.90
8475;DHT22;4274;52.012;8.448;2023-12-20T06:21:17;5.60;99.90
8475;DHT22;4274;52.012;8.448;2023-12-20T06:23:42;5.60;99.90
8475;DHT22;4274;52.012;8.448;2023-12-20T06:26:08;5.60;99.90
8475;DHT22;4274;52.012;8.448;2023-12-20T06:28:33;5.60;99.90
8475;DHT22;4274;52.012;8.448;2023-12-20T06:30:59;5.60;99.90
8475;DHT22;4274;52.012;8.448;2023-12-20T06:33:26;5.60;99.90
8475;DHT22;4274;52.012;8.448;2023-12-20T06:35:51;5.60;99.90
8475;DHT22;4274;52.012;8.448;2023-12-20T06:38:18;5.60;99.90
8475;DHT22;4274;52.012;8.448;2023-12-20T06:40:43;5.60;99.90
8475;DHT22;4274;52.012;8.448;2023-12-20T06:43:09;5.70;99.90
8475;DHT22;4274;52.012;8.448;2023-12-20T06:45:35;5.70;99.90
8475;DHT22;4274;52.012;8.448;2023-12-20T06:48:00;5.70;99.90
8475;DHT22;4274;52.012;8.448;2023-12-20T06:50:26;5.70;99.90
8475;DHT22;4274;52.012;8.448;2023-12-20T06:52:52;5.70;99.90
8475;DHT22;4274;52.012;8.448;2023-12-20T06:55:18;5.70;99.90
8475;DHT22;4274;52.012;8.448;2023-12-20T06:57:43;5.70;99.90
8475;DHT22;4274;52.012;8.448;2023-12-20T07:00:11;5.70;99.90
8475;DHT22;4274;52.012;8.448;2023-12-20T07:02:37;5.70;99.90
8475;DHT22;4274;52.012;8.448;2023-12-20T07:05:02;5.70;99.90
8475;DHT22;4274;52.012;8.448;2023-12-20T07:07:28;5.70;99.90
8475;DHT22;4274;52.012;8.448;2023-12-20T07:09:54;5.70;99.90
8475;DHT22;4274;52.012;8.448;2023-12-20T07:12:19;5.70;99.90
8475;DHT22;4274;52.012;8.448;2023-12-20T07:14:45;5.70;99.90
8475;DHT22;4274;52.012;8.448;2023-12-20T07:17:11;5.70;99.90
8475;DHT22;4274;52.012;8.448;2023-12-20T07:19:39;5.70;99.90
8475;DHT22;4274;52.012;8.448;2023-12-20T07:22:06;5.60;99.90
8475;DHT22;4274;52.012;8.448;2023-12-20T07:24:32;5.60;99.90
8475;DHT22;4274;52.012;8.448;2023-12-20T07:26:59;5.60;99.90
8475;DHT22;4274;52.012;8.448;2023-12-20T07:29:25;5.70;99.90
8475;DHT22;4274;52.012;8.448;2023-12-20T07:31:50;5.70;99.90
8475;DHT22;4274;52.012;8.448;2023-12-20T07:34:17;5.60;99.90
8475;DHT22;4274;52.012;8.448;2023-12-20T07:36:43;5.70;99.90
8475;DHT22;4274;52.012;8.448;2023-12-20T07:39:08;5.70;99.90
8475;DHT22;4274;52.012;8.448;2023-12-20T07:41:34;5.70;99.90
8475;DHT22;4274;52.012;8.448;2023-12-20T07:43:59;5.70;99.90
8475;DHT22;4274;52.012;8.448;2023-12-20T07:46:25;5.80;99.90
8475;DHT22;4274;52.012;8.448;2023-12-20T07:48:51;5.80;99.90
8475;DHT22;4274;52.012;8.448;2023-12-20T07:51:16;5.80;99.90
8475;DHT22;4274;52.012;8.448;2023-12-20T07:53:42;5.80;99.90
8475;DHT22;4274;52.012;8.448;2023-12-20T07:56:18;5.80;99.90
8475;DHT22;4274;52.012;8.448;2023-12-20T07:58:45;5.80;99.90
8475;DHT22;4274;52.012;8.448;2023-12-20T08:01:11;5.80;99.90
8475;DHT22;4274;52.012;8.448;2023-12-20T08:03:37;5.70;99.90
8475;DHT22;4274;52.012;8.448;2023-12-20T08:06:03;5.80;99.90
8475;DHT22;4274;52.012;8.448;2023-12-20T08:08:29;5.70;99.90
8475;DHT22;4274;52.012;8.448;2023-12-20T08:10:55;5.70;99.90
8475;DHT22;4274;52.012;8.448;2023-12-20T08:13:23;5.70;99.90
8475;DHT22;4274;52.012;8.448;2023-12-20T08:15:51;5.70;99.90
8475;DHT22;4274;52.012;8.448;2023-12-20T08:18:17;5.60;99.90
8475;DHT22;4274;52.012;8.448;2023-12-20T08:20:43;5.70;99.90
8475;DHT22;4274;52.012;8.448;2023-12-20T08:23:08;5.70;99.90
8475;DHT22;4274;52.012;8.448;2023-12-20T08:25:34;5.70;99.90
8475;DHT22;4274;52.012;8.448;2023-12-20T08:27:59;5.70;99.90
8475;DHT22;4274;52.012;8.448;2023-12-20T08:30:25;5.80;99.90
8475;DHT22;4274;52.012;8.448;2023-12-20T08:32:50;5.80;99.90
8475;DHT22;4274;52.012;8.448;2023-12-20T08:35:16;5.80;99.90
8475;DHT22;4274;52.012;8.448;2023-12-20T08:37:43;5.80;99.90
8475;DHT22;4274;52.012;8.448;2023-12-20T08:40:09;5.80;99.90
8475;DHT22;4274;52.012;8.448;2023-12-20T08:42:34;5.80;99.90
8475;DHT22;4274;52.012;8.448;2023-12-20T08:45:00;5.70;99.90
8475;DHT22;4274;52.012;8.448;2023-12-20T08:47:26;5.80;99.90
8475;DHT22;4274;52.012;8.448;2023-12-20T08:49:52;5.80;99.90
8475;DHT22;4274;52.012;8.448;2023-12-20T08:52:22;5.80;99.90
8475;DHT22;4274;52.012;8.448;2023-12-20T08:54:48;5.80;99.90
8475;DHT22;4274;52.012;8.448;2023-12-20T08:57:14;5.80;99.90
8475;DHT22;4274;52.012;8.448;2023-12-20T08:59:39;5.80;99.90
8475;DHT22;4274;52.012;8.448;2023-12-20T09:02:05;5.80;99.90
8475;DHT22;4274;52.012;8.448;2023-12-20T09:04:31;5.70;99.90
8475;DHT22;4274;52.012;8.448;2023-12-20T09:06:59;5.80;99.90
8475;DHT22;4274;52.012;8.448;2023-12-20T09:09:24;5.80;99.90
8475;DHT22;4274;52.012;8.448;2023-12-20T09:11:50;5.80;99.90
8475;DHT22;4274;52.012;8.448;2023-12-20T09:14:16;5.80;99.90
8475;DHT22;4274;52.012;8.448;2023-12-20T09:16:42;5.70;99.90
8475;DHT22;4274;52.012;8.448;2023-12-20T09:19:07;5.70;99.90
8475;DHT22;4274;52.012;8.448;2023-12-20T09:21:33;5.80;99.90
8475;DHT22;4274;52.012;8.448;2023-12-20T09:23:58;5.70;99.90
8475;DHT22;4274;52.012;8.448;2023-12-20T09:26:24;5.80;99.90
8475;DHT22;4274;52.012;8.448;2023-12-20T09:28:50;5.80;99.90
8475;DHT22;4274;52.012;8.448;2023-12-20T09:31:15;5.90;99.90
8475;DHT22;4274;52.012;8.448;2023-12-20T09:33:41;5.80;99.90
8475;DHT22;4274;52.012;8.448;2023-12-20T09:36:07;5.90;99.90
8475;DHT22;4274;52.012;8.448;2023-12-20T09:38:32;5.90;99.90
8475;DHT22;4274;52.012;8.448;2023-12-20T09:40:58;5.90;99.90
8475;DHT22;4274;52.012;8.448;2023-12-20T09:43:24;5.90;99.90
8475;DHT22;4274;52.012;8.448;2023-12-20T09:45:53;5.90;99.90
8475;DHT22;4274;52.012;8.448;2023-12-20T09:48:20;5.80;99.90
8475;DHT22;4274;52.012;8.448;2023-12-20T09:50:46;5.80;99.90
8475;DHT22;4274;52.012;8.448;2023-12-20T09:53:15;5.90;99.90
8475;DHT22;4274;52.012;8.448;2023-12-20T09:55:41;5.90;99.90
8475;DHT22;4274;52.012;8.448;2023-12-20T09:58:08;5.90;99.90
8475;DHT22;4274;52.012;8.448;2023-12-20T10:00:35;5.90;99.90
8475;DHT22;4274;52.012;8.448;2023-12-20T10:03:01;5.90;99.90
8475;DHT22;4274;52.012;8.448;2023-12-20T10:05:31;6.00;99.90
8475;DHT22;4274;52.012;8.448;2023-12-20T10:07:58;6.00;99.90
8475;DHT22;4274;52.012;8.448;2023-12-20T10:10:24;6.00;99.90
8475;DHT22;4274;52.012;8.448;2023-12-20T10:13:07;6.00;99.90
8475;DHT22;4274;52.012;8.448;2023-12-20T10:15:33;6.00;99.90
8475;DHT22;4274;52.012;8.448;2023-12-20T10:18:00;6.00;99.90
8475;DHT22;4274;52.012;8.448;2023-12-20T10:20:26;6.10;99.90
8475;DHT22;4274;52.012;8.448;2023-12-20T10:22:54;6.10;99.90
8475;DHT22;4274;52.012;8.448;2023-12-20T10:25:21;6.10;99.90
8475;DHT22;4274;52.012;8.448;2023-12-20T10:27:46;6.20;99.90
8475;DHT22;4274;52.012;8.448;2023-12-20T10:30:13;6.20;99.90
8475;DHT22;4274;52.012;8.448;2023-12-20T10:32:39;6.20;99.90
8475;DHT22;4274;52.012;8.448;2023-12-20T10:35:06;6.20;99.90
8475;DHT22;4274;52.012;8.448;2023-12-20T10:37:35;6.20;99.90
8475;DHT22;4274;52.012;8.448;2023-12-20T10:40:03;6.10;99.90
8475;DHT22;4274;52.012;8.448;2023-12-20T10:42:31;6.10;99.90
8475;DHT22;4274;52.012;8.448;2023-12-20T10:44:59;6.10;99.90
8475;DHT22;4274;52.012;8.448;2023-12-20T10:47:25;6.10;99.90
8475;DHT22;4274;52.012;8.448;2023-12-20T10:49:52;6.20;99.90
8475;DHT22;4274;52.012;8.448;2023-12-20T10:52:19;6.20;99.90
8475;DHT22;4274;52.012;8.448;2023-12-20T10:54:48;6.10;99.90
8475;DHT22;4274;52.012;8.448;2023-12-20T10:57:14;6.10;99.90
8475;DHT22;4274;52.012;8.448;2023-12-20T10:59:43;6.10;99.90
8475;DHT22;4274;52.012;8.448;2023-12-20T11:02:11;6.00;99.90
8475;DHT22;4274;52.012;8.448;2023-12-20T11:04:54;6.00;99.90
8475;DHT22;4274;52.012;8.448;2023-12-20T11:07:33;6.00;99.90
8475;DHT22;4274;52.012;8.448;2023-12-20T11:10:25;6.00;99.90
8475;DHT22;4274;52.012;8.448;2023-12-20T11:12:53;6.10;99.90
8475;DHT22;4274;52.012;8.448;2023-12-20T11:15:20;6.10;99.90
8475;DHT22;4274;52.012;8.448;2023-12-20T11:17:47;6.10;99.90
8475;DHT22;4274;52.012;8.448;2023-12-20T11:20:23;6.20;99.90
8475;DHT22;4274;52.012;8.448;2023-12-20T11:22:53;6.20;99.90
8475;DHT22;4274;52.012;8.448;2023-12-20T11:25:19;6.20;99.90
8475;DHT22;4274;52.012;8.448;2023-12-20T11:28:11;6.20;99.90
8475;DHT22;4274;52.012;8.448;2023-12-20T11:30:53;6.20;99.90
8475;DHT22;4274;52.012;8.448;2023-12-20T11:33:26;6.30;99.90
8475;DHT22;4274;52.012;8.448;2023-12-20T11:35:55;6.30;99.90
8475;DHT22;4274;52.012;8.448;2023-12-20T11:38:21;6.30;99.90
8475;DHT22;4274;52.012;8.448;2023-12-20T11:40:50;6.30;99.90
8475;DHT22;4274;52.012;8.448;2023-12-20T11:43:35;6.40;99.90
8475;DHT22;4274;52.012;8.448;2023-12-20T11:46:08;6.60;99.90
8475;DHT22;4274;52.012;8.448;2023-12-20T11:48:38;6.70;99.90
8475;DHT22;4274;52.012;8.448;2023-12-20T11:51:12;6.70;99.90
8475;DHT22;4274;52.012;8.448;2023-12-20T11:53:39;6.70;99.90
8475;DHT22;4274;52.012;8.448;2023-12-20T11:56:06;6.70;99.90
8475;DHT22;4274;52.012;8.448;2023-12-20T11:58:32;6.80;99.90
8475;DHT22;4274;52.012;8.448;2023-12-20T12:00:58;6.90;99.90
8475;DHT22;4274;52.012;8.448;2023-12-20T12:03:24;6.90;99.90
8475;DHT22;4274;52.012;8.448;2023-12-20T12:05:50;6.90;99.90
8475;DHT22;4274;52.012;8.448;2023-12-20T12:08:16;6.90;99.90
8475;DHT22;4274;52.012;8.448;2023-12-20T12:10:43;6.90;99.90
8475;DHT22;4274;52.012;8.448;2023-12-20T12:13:09;6.90;99.90
8475;DHT22;4274;52.012;8.448;2023-12-20T12:15:36;7.00;99.90
8475;DHT22;4274;52.012;8.448;2023-12-20T12:18:02;6.90;99.90
8475;DHT22;4274;52.012;8.448;2023-12-20T12:20:28;6.90;99.90
8475;DHT22;4274;52.012;8.448;2023-12-20T12:23:04;6.80;99.90
8475;DHT22;4274;52.012;8.448;2023-12-20T12:25:31;6.70;99.90
8475;DHT22;4274;52.012;8.448;2023-12-20T12:27:58;6.70;99.90
8475;DHT22;4274;52.012;8.448;2023-12-20T12:30:24;6.60;99.90
8475;DHT22;4274;52.012;8.448;2023-12-20T12:32:51;6.60;99.90
8475;DHT22;4274;52.012;8.448;2023-12-20T12:35:17;6.60;99.90
8475;DHT22;4274;52.012;8.448;2023-12-20T12:37:43;6.60;99.90
8475;DHT22;4274;52.012;8.448;2023-12-20T12:40:17;6.60;99.90
8475;DHT22;4274;52.012;8.448;2023-12-20T12:42:44;6.60;99.90
8475;DHT22;4274;52.012;8.448;2023-12-20T12:45:10;6.60;99.90
8475;DHT22;4274;52.012;8.448;2023-12-20T12:47:39;6.60;99.90
8475;DHT22;4274;52.012;8.448;2023-12-20T12:50:05;6.60;99.90
8475;DHT22;4274;52.012;8.448;2023-12-20T12:52:31;6.60;99.90
8475;DHT22;4274;52.012;8.448;2023-12-20T12:54:57;6.60;99.90
8475;DHT22;4274;52.012;8.448;2023-12-20T12:57:23;6.50;99.90
8475;DHT22;4274;52.012;8.448;2023-12-20T12:59:49;6.60;99.90
8475;DHT22;4274;52.012;8.448;2023-12-20T13:02:15;6.60;99.90
8475;DHT22;4274;52.012;8.448;2023-12-20T13:04:41;6.60;99.90
8475;DHT22;4274;52.012;8.448;2023-12-20T13:07:07;6.60;99.90
8475;DHT22;4274;52.012;8.448;2023-12-20T13:09:36;6.60;99.90
8475;DHT22;4274;52.012;8.448;2023-12-20T13:12:01;6.60;99.90
8475;DHT22;4274;52.012;8.448;2023-12-20T13:14:29;6.60;99.90
8475;DHT22;4274;52.012;8.448;2023-12-20T13:16:54;6.60;99.90
8475;DHT22;4274;52.012;8.448;2023-12-20T13:19:21;6.60;99.90
8475;DHT22;4274;52.012;8.448;2023-12-20T13:21:46;6.60;99.90
8475;DHT22;4274;52.012;8.448;2023-12-20T13:24:12;6.50;99.90
8475;DHT22;4274;52.012;8.448;2023-12-20T13:26:37;6.40;99.90
8475;DHT22;4274;52.012;8.448;2023-12-20T13:29:03;6.30;99.90
8475;DHT22;4274;52.012;8.448;2023-12-20T13:31:28;6.20;99.90
8475;DHT22;4274;52.012;8.448;2023-12-20T13:33:54;6.10;99.90
8475;DHT22;4274;52.012;8.448;2023-12-20T13:36:20;6.10;99.90
8475;DHT22;4274;52.012;8.448;2023-12-20T13:38:45;6.00;99.90
8475;DHT22;4274;52.012;8.448;2023-12-20T13:41:11;6.00;99.90
8475;DHT22;4274;52.012;8.448;2023-12-20T13:43:36;5.90;99.90
8475;DHT22;4274;52.012;8.448;2023-12-20T13:46:02;5.80;99.90
8475;DHT22;4274;52.012;8.448;2023-12-20T13:48:27;5.70;99.90
8475;DHT22;4274;52.012;8.448;2023-12-20T13:50:53;5.70;99.90
8475;DHT22;4274;52.012;8.448;2023-12-20T13:53:20;5.60;99.90
8475;DHT22;4274;52.012;8.448;2023-12-20T13:55:45;5.60;99.90
8475;DHT22;4274;52.012;8.448;2023-12-20T13:58:11;5.60;99.90
8475;DHT22;4274;52.012;8.448;2023-12-20T14:00:36;5.60;99.90
8475;DHT22;4274;52.012;8.448;2023-12-20T14:03:06;5.60;99.90
8475;DHT22;4274;52.012;8.448;2023-12-20T14:05:32;5.60;99.90
8475;DHT22;4274;52.012;8.448;2023-12-20T14:07:58;5.60;99.90
8475;DHT22;4274;52.012;8.448;2023-12-20T14:10:24;5.60;99.90
8475;DHT22;4274;52.012;8.448;2023-12-20T14:12:52;5.60;99.90
8475;DHT22;4274;52.012;8.448;2023-12-20T14:15:17;5.60;99.90
8475;DHT22;4274;52.012;8.448;2023-12-20T14:17:43;5.60;99.90
8475;DHT22;4274;52.012;8.448;2023-12-20T14:20:09;5.60;99.90
8475;DHT22;4274;52.012;8.448;2023-12-20T14:22:35;5.60;99.90
8475;DHT22;4274;52.012;8.448;2023-12-20T14:25:01;5.60;99.90
8475;DHT22;4274;52.012;8.448;2023-12-20T14:27:27;5.60;99.90
8475;DHT22;4274;52.012;8.448;2023-12-20T14:29:54;5.60;99.90
8475;DHT22;4274;52.012;8.448;2023-12-20T14:32:19;5.60;99.90
8475;DHT22;4274;52.012;8.448;2023-12-20T14:34:45;5.60;99.90
8475;DHT22;4274;52.012;8.448;2023-12-20T14:37:11;5.60;99.90
8475;DHT22;4274;52.012;8.448;2023-12-20T14:39:37;5.60;99.90
8475;DHT22;4274;52.012;8.448;2023-12-20T14:42:09;5.50;99.90
8475;DHT22;4274;52.012;8.448;2023-12-20T14:44:38;5.50;99.90
8475;DHT22;4274;52.012;8.448;2023-12-20T14:47:04;5.50;99.90
8475;DHT22;4274;52.012;8.448;2023-12-20T14:49:30;5.50;99.90
8475;DHT22;4274;52.012;8.448;2023-12-20T14:51:56;5.50;99.90
8475;DHT22;4274;52.012;8.448;2023-12-20T14:54:21;5.50;99.90
8475;DHT22;4274;52.012;8.448;2023-12-20T14:56:47;5.50;99.90
8475;DHT22;4274;52.012;8.448;2023-12-20T14:59:13;5.40;99.90
8475;DHT22;4274;52.012;8.448;2023-12-20T15:01:39;5.40;99.90
8475;DHT22;4274;52.012;8.448;2023-12-20T15:04:09;5.40;99.90
8475;DHT22;4274;52.012;8.448;2023-12-20T15:06:34;5.40;99.90
8475;DHT22;4274;52.012;8.448;2023-12-20T15:09:00;5.40;99.90
8475;DHT22;4274;52.012;8.448;2023-12-20T15:11:26;5.30;99.90
8475;DHT22;4274;52.012;8.448;2023-12-20T15:13:52;5.40;99.90
8475;DHT22;4274;52.012;8.448;2023-12-20T15:16:20;5.40;99.90
8475;DHT22;4274;52.012;8.448;2023-12-20T15:18:46;5.40;99.90
8475;DHT22;4274;52.012;8.448;2023-12-20T15:21:12;5.40;99.90
8475;DHT22;4274;52.012;8.448;2023-12-20T15:23:37;5.40;99.90
8475;DHT22;4274;52.012;8.448;2023-12-20T15:26:03;5.40;99.90
8475;DHT22;4274;52.012;8.448;2023-12-20T15:28:30;5.40;99.90
8475;DHT22;4274;52.012;8.448;2023-12-20T15:30:55;5.40;99.90
8475;DHT22;4274;52.012;8.448;2023-12-20T15:33:22;5.40;99.90
8475;DHT22;4274;52.012;8.448;2023-12-20T15:35:48;5.40;99.90
8475;DHT22;4274;52.012;8.448;2023-12-20T15:38:13;5.40;99.90
8475;DHT22;4274;52.012;8.448;2023-12-20T15:40:39;5.30;99.90
8475;DHT22;4274;52.012;8.448;2023-12-20T15:43:04;5.30;99.90
8475;DHT22;4274;52.012;8.448;2023-12-20T15:45:30;5.30;99.90
8475;DHT22;4274;52.012;8.448;2023-12-20T15:47:56;5.30;99.90
8475;DHT22;4274;52.012;8.448;2023-12-20T15:50:21;5.30;99.90
8475;DHT22;4274;52.012;8.448;2023-12-20T15:52:47;5.30;99.90
8475;DHT22;4274;52.012;8.448;2023-12-20T15:55:13;5.30;99.90
8475;DHT22;4274;52.012;8.448;2023-12-20T15:57:38;5.20;99.90
8475;DHT22;4274;52.012;8.448;2023-12-20T16:00:05;5.30;99.90
8475;DHT22;4274;52.012;8.448;2023-12-20T16:02:31;5.30;99.90
8475;DHT22;4274;52.012;8.448;2023-12-20T16:04:56;5.20;99.90
8475;DHT22;4274;52.012;8.448;2023-12-20T16:07:22;5.20;99.90
8475;DHT22;4274;52.012;8.448;2023-12-20T16:09:47;5.10;99.90
8475;DHT22;4274;52.012;8.448;2023-12-20T16:12:13;5.10;99.90